M I D A S
Marine Information and Data Acquisition System
Tripno 2329 of the Zeeleeuw from 2012-06-14 04:46:31 to 2012-06-14 15:55:33
Back to CruiseResearch ActivitiesStationsMapUnderway DataData graphs

EquipmentUnitsComment
TimeDGPSUTC
LatitudeDGPSDM.mWGS84
LongitudeDGPSDM.mWGS84
HeadingGyrodeg 
SOGDGPSknotsSpeed over ground
COGDGPSdegCourse over ground
DepthEcho soundermeters200 kHz
Missing or incorrect values are displayed as -999
Navigation data collected by the RV Zeeleeuw from 2012-06-14 04:23:01 to 2012-06-14 16:21:26
                                                                                    Next 1000 lines
Time Latitude Longitude Heading SOG COG Depth
2012-06-14 04:23:12 51°13.635 2°56.014 126 -999 234 -999
2012-06-14 04:23:17 51°13.635 2°56.014 126 -999 119 -999
2012-06-14 04:23:21 51°13.635 2°56.014 126 0.1 79 7.9
2012-06-14 04:23:25 51°13.635 2°56.014 126 0.1 71 8.2
2012-06-14 04:23:31 51°13.635 2°56.014 126 -999 358 8
2012-06-14 04:23:36 51°13.635 2°56.014 126 -999 26 -999
2012-06-14 04:23:42 51°13.635 2°56.014 126 -999 214 -999
2012-06-14 04:23:45 51°13.635 2°56.014 126 0.1 100 7.8
2012-06-14 04:23:52 51°13.635 2°56.014 126 0.1 71 -999
2012-06-14 04:23:57 51°13.635 2°56.013 126 -999 301 -999
2012-06-14 04:24:01 51°13.635 2°56.013 126 0.1 266 -999
2012-06-14 04:24:05 51°13.635 2°56.013 125.9 -999 66 -999
2012-06-14 04:24:12 51°13.635 2°56.013 125.9 0.1 48 -999
2012-06-14 04:24:17 51°13.635 2°56.013 125.9 0.1 275 7.8
2012-06-14 04:24:21 51°13.635 2°56.013 125.9 0.1 243 -999
2012-06-14 04:24:26 51°13.635 2°56.013 125.9 0.1 2 7.8
2012-06-14 04:24:31 51°13.635 2°56.013 125.9 -999 130 7.8
2012-06-14 04:24:37 51°13.635 2°56.013 125.9 0.1 78 -999
2012-06-14 04:24:42 51°13.635 2°56.013 125.9 0.1 62 -999
2012-06-14 04:24:46 51°13.634 2°56.013 125.9 0.1 312 7.8
2012-06-14 04:24:51 51°13.633 2°56.013 125.9 0.1 280 7.9
2012-06-14 04:24:56 51°13.633 2°56.013 125.9 0.1 53 8
2012-06-14 04:25:01 51°13.633 2°56.013 125.9 -999 57 7.9
2012-06-14 04:25:06 51°13.633 2°56.012 125.9 0.1 221 7.9
2012-06-14 04:25:10 51°13.633 2°56.012 125.9 0.1 219 8
2012-06-14 04:25:16 51°13.633 2°56.013 125.9 -999 73 8
2012-06-14 04:25:21 51°13.633 2°56.013 125.9 -999 55 7.9
2012-06-14 04:25:26 51°13.632 2°56.012 126 0.1 70 8
2012-06-14 04:25:30 51°13.632 2°56.012 126.1 0.1 85 7.9
2012-06-14 04:25:35 51°13.632 2°56.012 126.2 0.1 114 8
2012-06-14 04:25:40 51°13.632 2°56.012 126.2 -999 134 8
2012-06-14 04:25:45 51°13.632 2°56.012 126.2 -999 258 7.9
2012-06-14 04:25:50 51°13.632 2°56.012 126.2 -999 51 8.2
2012-06-14 04:25:55 51°13.633 2°56.013 126.2 0.1 39 -999
2012-06-14 04:26:01 51°13.633 2°56.012 126.2 0.1 273 -999
2012-06-14 04:26:06 51°13.633 2°56.013 126.1 -999 255 -999
2012-06-14 04:26:11 51°13.633 2°56.013 126.1 0.1 259 -999
2012-06-14 04:26:16 51°13.634 2°56.013 126.1 -999 333 8
2012-06-14 04:26:22 51°13.634 2°56.013 126.1 -999 6 -999
2012-06-14 04:26:27 51°13.635 2°56.013 126.1 -999 304 -999
2012-06-14 04:26:31 51°13.635 2°56.013 126.1 -999 314 7.9
2012-06-14 04:26:36 51°13.635 2°56.013 126.1 -999 14 8
2012-06-14 04:26:41 51°13.635 2°56.013 126.1 -999 359 7.9
2012-06-14 04:26:46 51°13.635 2°56.014 126.2 0.1 58 7.9
2012-06-14 04:26:51 51°13.635 2°56.013 126.2 -999 176 8
2012-06-14 04:26:56 51°13.636 2°56.013 126.2 -999 285 8
2012-06-14 04:27:01 51°13.636 2°56.014 126.2 -999 92 -999
2012-06-14 04:27:06 51°13.636 2°56.014 126.2 -999 49 -999
2012-06-14 04:27:11 51°13.636 2°56.014 126.1 -999 40 8
2012-06-14 04:27:16 51°13.635 2°56.013 126 0.1 250 7.9
2012-06-14 04:27:21 51°13.635 2°56.014 125.9 -999 15 -999
2012-06-14 04:27:27 51°13.635 2°56.014 125.9 -999 34 -999
2012-06-14 04:27:32 51°13.633 2°56.013 125.9 -999 308 -999
2012-06-14 04:27:36 51°13.632 2°56.013 125.9 0.2 208 -999
2012-06-14 04:27:41 51°13.632 2°56.013 125.9 0.1 18 8
2012-06-14 04:27:46 51°13.633 2°56.013 125.9 0.2 13 8.1
2012-06-14 04:27:51 51°13.633 2°56.013 126 0.1 42 8
2012-06-14 04:27:56 51°13.632 2°56.013 126 -999 70 8
2012-06-14 04:28:02 51°13.632 2°56.013 126 0.1 35 -999
2012-06-14 04:28:07 51°13.632 2°56.012 126 -999 336 7.9
2012-06-14 04:28:11 51°13.632 2°56.012 126 -999 82 -999
2012-06-14 04:28:17 51°13.632 2°56.012 126 -999 163 7.9
2012-06-14 04:28:21 51°13.632 2°56.012 125.9 -999 159 -999
2012-06-14 04:28:27 51°13.632 2°56.012 125.8 -999 351 -999
2012-06-14 04:28:32 51°13.632 2°56.012 125.8 -999 294 -999
2012-06-14 04:28:36 51°13.632 2°56.012 125.8 0.1 224 8.2
2012-06-14 04:28:41 51°13.632 2°56.012 125.8 -999 35 -999
2012-06-14 04:28:46 51°13.633 2°56.013 125.8 0.2 52 7.9
2012-06-14 04:28:51 51°13.633 2°56.012 125.8 0.1 36 7.9
2012-06-14 04:28:56 51°13.633 2°56.012 125.8 0.1 232 8
2012-06-14 04:29:01 51°13.633 2°56.012 125.8 -999 55 8
2012-06-14 04:29:05 51°13.633 2°56.012 125.8 0.1 221 -999
2012-06-14 04:29:11 51°13.633 2°56.012 125.8 -999 357 -999
2012-06-14 04:29:17 51°13.633 2°56.012 125.7 0.1 49 -999
2012-06-14 04:29:22 51°13.633 2°56.012 125.7 0.1 228 -999
2012-06-14 04:29:26 51°13.633 2°56.012 125.7 0.1 248 -999
2012-06-14 04:29:31 51°13.634 2°56.012 125.7 -999 3 -999
2012-06-14 04:29:37 51°13.634 2°56.012 125.7 -999 -999 -999
2012-06-14 04:29:40 51°13.634 2°56.012 125.7 -999 224 8
2012-06-14 04:29:46 51°13.634 2°56.012 125.7 0.1 258 7.9
2012-06-14 04:29:51 51°13.634 2°56.012 125.7 0.2 42 8
2012-06-14 04:29:56 51°13.634 2°56.012 125.7 0.1 237 8
2012-06-14 04:30:01 51°13.634 2°56.012 125.7 0.1 33 8
2012-06-14 04:30:06 51°13.634 2°56.012 125.7 0.1 59 8
2012-06-14 04:30:10 51°13.634 2°56.012 125.7 -999 85 8
2012-06-14 04:30:16 51°13.634 2°56.012 125.7 0.1 250 -999
2012-06-14 04:30:22 51°13.634 2°56.012 125.7 0.1 244 -999
2012-06-14 04:30:27 51°13.634 2°56.013 125.7 0.1 40 -999
2012-06-14 04:30:31 51°13.634 2°56.013 125.7 0.1 23 -999
2012-06-14 04:30:36 51°13.634 2°56.012 125.7 0.1 251 8
2012-06-14 04:30:42 51°13.634 2°56.011 125.7 0.2 246 8
2012-06-14 04:30:46 51°13.634 2°56.012 125.7 0.1 248 8.1
2012-06-14 04:30:51 51°13.634 2°56.012 125.7 0.1 250 7.9
2012-06-14 04:30:56 51°13.634 2°56.012 125.7 -999 261 7.9
2012-06-14 04:31:01 51°13.634 2°56.013 125.7 -999 100 7.9
2012-06-14 04:31:06 51°13.633 2°56.013 125.7 -999 93 8
2012-06-14 04:31:11 51°13.634 2°56.012 125.6 -999 174 -999
2012-06-14 04:31:16 51°13.634 2°56.012 125.6 -999 82 8
2012-06-14 04:31:20 51°13.633 2°56.011 125.6 -999 257 8
2012-06-14 04:31:26 51°13.634 2°56.011 125.6 -999 45 8
2012-06-14 04:31:32 51°13.634 2°56.011 125.6 -999 351 8.2
2012-06-14 04:31:37 51°13.634 2°56.011 125.6 -999 45 -999
2012-06-14 04:31:41 51°13.633 2°56.011 125.6 -999 166 8
2012-06-14 04:31:46 51°13.634 2°56.011 125.6 -999 266 7.9
2012-06-14 04:31:51 51°13.634 2°56.011 125.6 -999 22 8
2012-06-14 04:31:56 51°13.634 2°56.011 125.6 -999 271 -999
2012-06-14 04:32:01 51°13.634 2°56.011 125.6 0.1 252 8
2012-06-14 04:32:06 51°13.634 2°56.011 125.6 -999 295 5.9
2012-06-14 04:32:12 51°13.634 2°56.012 125.6 -999 42 8
2012-06-14 04:32:17 51°13.634 2°56.012 125.6 -999 180 8.1
2012-06-14 04:32:22 51°13.634 2°56.013 125.6 0.1 100 8
2012-06-14 04:32:26 51°13.635 2°56.013 125.6 -999 355 -999
2012-06-14 04:32:31 51°13.635 2°56.013 125.6 -999 44 7.9
2012-06-14 04:32:36 51°13.634 2°56.013 125.6 -999 210 5.9
2012-06-14 04:32:41 51°13.635 2°56.013 125.6 -999 197 5.9
2012-06-14 04:32:46 51°13.635 2°56.013 125.6 -999 47 7.9
2012-06-14 04:32:50 51°13.635 2°56.013 125.6 0.1 271 7.9
2012-06-14 04:32:56 51°13.634 2°56.013 125.6 -999 324 7.9
2012-06-14 04:33:01 51°13.634 2°56.014 125.6 -999 107 -999
2012-06-14 04:33:06 51°13.634 2°56.014 125.6 0.1 127 8
2012-06-14 04:33:10 51°13.634 2°56.014 125.6 0.1 180 8.1
2012-06-14 04:33:17 51°13.635 2°56.014 125.6 0.1 223 8
2012-06-14 04:33:21 51°13.635 2°56.014 125.6 -999 231 8
2012-06-14 04:33:26 51°13.634 2°56.014 125.6 -999 67 8
2012-06-14 04:33:31 51°13.634 2°56.014 125.6 0.1 283 8
2012-06-14 04:33:36 51°13.635 2°56.014 125.6 0.1 201 8.1
2012-06-14 04:33:41 51°13.635 2°56.014 125.6 0.1 115 8.1
2012-06-14 04:33:46 51°13.635 2°56.014 125.6 0.1 304 7.9
2012-06-14 04:33:51 51°13.634 2°56.014 125.6 -999 357 -999
2012-06-14 04:33:56 51°13.634 2°56.014 125.6 -999 159 8
2012-06-14 04:34:01 51°13.634 2°56.014 125.6 0.1 157 8
2012-06-14 04:34:06 51°13.634 2°56.014 125.6 -999 131 8.1
2012-06-14 04:34:11 51°13.634 2°56.014 125.6 -999 172 8.1
2012-06-14 04:34:15 51°13.634 2°56.014 125.6 -999 225 8
2012-06-14 04:34:21 51°13.634 2°56.014 125.6 0.1 328 8.1
2012-06-14 04:34:26 51°13.634 2°56.014 125.5 0.1 328 8.1
2012-06-14 04:34:31 51°13.634 2°56.014 125.5 0.1 315 8.1
2012-06-14 04:34:36 51°13.634 2°56.015 125.5 -999 291 8.1
2012-06-14 04:34:41 51°13.634 2°56.015 125.5 -999 143 7.9
2012-06-14 04:34:46 51°13.633 2°56.014 125.5 -999 69 7.9
2012-06-14 04:34:51 51°13.632 2°56.014 125.5 0.1 136 7.9
2012-06-14 04:34:56 51°13.631 2°56.013 125.5 0.1 162 -999
2012-06-14 04:35:01 51°13.631 2°56.013 125.5 0.1 139 7.9
2012-06-14 04:35:06 51°13.631 2°56.013 125.5 0.1 150 7.9
2012-06-14 04:35:11 51°13.631 2°56.013 125.5 -999 179 -999
2012-06-14 04:35:16 51°13.631 2°56.013 125.5 0.1 215 8.1
2012-06-14 04:35:20 51°13.631 2°56.013 125.5 -999 245 8.1
2012-06-14 04:35:25 51°13.631 2°56.013 125.5 -999 40 8.1
2012-06-14 04:35:31 51°13.631 2°56.013 125.5 0.1 59 8.1
2012-06-14 04:35:36 51°13.631 2°56.013 125.5 -999 289 -999
2012-06-14 04:35:41 51°13.631 2°56.013 125.5 -999 190 8
2012-06-14 04:35:46 51°13.631 2°56.013 125.6 -999 201 -999
2012-06-14 04:35:52 51°13.631 2°56.013 125.6 0.1 261 -999
2012-06-14 04:35:57 51°13.632 2°56.013 125.6 -999 288 8.1
2012-06-14 04:36:01 51°13.632 2°56.014 125.7 0.1 296 8.1
2012-06-14 04:36:06 51°13.632 2°56.014 125.7 0.1 278 -999
2012-06-14 04:36:10 51°13.632 2°56.013 125.7 0.1 277 8.1
2012-06-14 04:36:16 51°13.631 2°56.013 125.7 -999 44 8.3
2012-06-14 04:36:20 51°13.631 2°56.013 125.7 -999 155 8.1
2012-06-14 04:36:26 51°13.631 2°56.013 125.6 0.1 171 -999
2012-06-14 04:36:30 51°13.631 2°56.013 125.6 0.1 124 8
2012-06-14 04:36:35 51°13.63 2°56.013 125.6 0.1 102 -999
2012-06-14 04:36:41 51°13.631 2°56.013 125.6 -999 298 8.1
2012-06-14 04:36:46 51°13.631 2°56.013 125.6 0.1 228 5.9
2012-06-14 04:36:51 51°13.631 2°56.013 125.6 -999 243 8.1
2012-06-14 04:36:56 51°13.631 2°56.013 125.6 -999 54 8.1
2012-06-14 04:37:02 51°13.631 2°56.013 125.6 -999 293 8
2012-06-14 04:37:06 51°13.631 2°56.013 125.6 -999 198 8.2
2012-06-14 04:37:11 51°13.632 2°56.013 125.7 -999 75 8
2012-06-14 04:37:16 51°13.631 2°56.013 125.7 -999 164 8
2012-06-14 04:37:21 51°13.631 2°56.013 125.7 0.1 217 -999
2012-06-14 04:37:26 51°13.631 2°56.013 125.7 -999 225 8
2012-06-14 04:37:31 51°13.631 2°56.013 125.7 -999 288 8.2
2012-06-14 04:37:36 51°13.631 2°56.013 125.7 0.1 293 8
2012-06-14 04:37:41 51°13.631 2°56.013 125.6 -999 330 8
2012-06-14 04:37:46 51°13.631 2°56.013 125.5 -999 41 8
2012-06-14 04:37:50 51°13.631 2°56.012 125.5 -999 211 8.1
2012-06-14 04:37:55 51°13.631 2°56.012 125.5 -999 48 -999
2012-06-14 04:38:02 51°13.631 2°56.012 125.5 -999 97 8.1
2012-06-14 04:38:06 51°13.631 2°56.012 125.5 -999 231 8.1
2012-06-14 04:38:11 51°13.631 2°56.013 125.5 -999 82 8
2012-06-14 04:38:16 51°13.631 2°56.012 125.5 -999 144 8
2012-06-14 04:38:21 51°13.631 2°56.012 125.5 0.1 258 8.1
2012-06-14 04:38:26 51°13.63 2°56.012 125.5 0.1 126 8.1
2012-06-14 04:38:31 51°13.63 2°56.012 125.5 0.1 231 8.1
2012-06-14 04:38:35 51°13.63 2°56.012 125.5 0.1 206 8.1
2012-06-14 04:38:40 51°13.63 2°56.012 125.5 -999 236 8.1
2012-06-14 04:38:45 51°13.631 2°56.012 125.5 0.1 341 8
2012-06-14 04:38:50 51°13.63 2°56.012 125.5 0.1 344 8.1
2012-06-14 04:38:55 51°13.63 2°56.012 125.6 -999 147 -999
2012-06-14 04:39:00 51°13.63 2°56.012 125.7 0.1 181 8.1
2012-06-14 04:39:05 51°13.63 2°56.012 125.8 0.1 284 8.1
2012-06-14 04:39:10 51°13.631 2°56.013 126 0.2 39 -999
2012-06-14 04:39:15 51°13.63 2°56.013 126.1 0.1 160 8.3
2012-06-14 04:39:19 51°13.63 2°56.013 126.4 0.2 66 8.1
2012-06-14 04:39:25 51°13.631 2°56.013 126.5 -999 160 6
2012-06-14 04:39:30 51°13.631 2°56.013 126.4 -999 148 8.1
2012-06-14 04:39:35 51°13.631 2°56.013 126.2 0.1 210 8.2
2012-06-14 04:39:40 51°13.631 2°56.013 125.9 0.1 36 -999
2012-06-14 04:39:47 51°13.631 2°56.012 125.8 0.2 265 -999
2012-06-14 04:39:52 51°13.631 2°56.012 125.6 0.1 305 -999
2012-06-14 04:39:56 51°13.631 2°56.012 125.1 -999 251 -999
2012-06-14 04:40:01 51°13.631 2°56.012 124.9 0.1 325 -999
2012-06-14 04:40:06 51°13.631 2°56.012 124.9 0.1 311 -999
2012-06-14 04:40:12 51°13.631 2°56.012 124.9 -999 196 -999
2012-06-14 04:40:16 51°13.631 2°56.012 124.9 -999 65 -999
2012-06-14 04:40:21 51°13.631 2°56.012 124.9 0.1 112 -999
2012-06-14 04:40:26 51°13.631 2°56.012 124.9 -999 86 -999
2012-06-14 04:40:31 51°13.631 2°56.012 125.1 -999 34 -999
2012-06-14 04:40:36 51°13.631 2°56.012 125.3 -999 76 -999
2012-06-14 04:40:41 51°13.631 2°56.012 125.5 0.1 26 -999
2012-06-14 04:40:46 51°13.631 2°56.012 125.6 -999 258 8.1
2012-06-14 04:40:51 51°13.631 2°56.013 125.7 0.1 59 8.3
2012-06-14 04:40:56 51°13.631 2°56.013 125.8 -999 328 8.1
2012-06-14 04:41:01 51°13.63 2°56.013 125.9 -999 169 8.4
2012-06-14 04:41:06 51°13.63 2°56.013 126 -999 215 8.1
2012-06-14 04:41:10 51°13.63 2°56.013 126.3 -999 278 8.2
2012-06-14 04:41:16 51°13.63 2°56.013 126.5 -999 291 8
2012-06-14 04:41:21 51°13.63 2°56.013 126.7 -999 332 6
2012-06-14 04:41:25 51°13.63 2°56.013 126.8 -999 303 8
2012-06-14 04:41:30 51°13.63 2°56.013 126.9 -999 326 8.2
2012-06-14 04:41:36 51°13.63 2°56.013 126.9 -999 148 8
2012-06-14 04:41:41 51°13.63 2°56.013 126.9 -999 92 8.1
2012-06-14 04:41:46 51°13.63 2°56.013 126.9 0.1 129 8.5
2012-06-14 04:41:51 51°13.63 2°56.013 126.9 -999 106 8.2
2012-06-14 04:41:56 51°13.63 2°56.013 126.9 -999 173 8.2
2012-06-14 04:42:01 51°13.63 2°56.013 126.9 0.1 219 8.2
2012-06-14 04:42:06 51°13.63 2°56.013 126.9 -999 249 8.2
2012-06-14 04:42:10 51°13.63 2°56.013 126.9 -999 183 8.1
2012-06-14 04:42:16 51°13.63 2°56.013 126.9 -999 74 8.1
2012-06-14 04:42:21 51°13.63 2°56.013 126.9 -999 29 -999
2012-06-14 04:42:27 51°13.63 2°56.013 126.9 -999 219 8.1
2012-06-14 04:42:31 51°13.63 2°56.013 126.9 0.1 211 8.1
2012-06-14 04:42:36 51°13.63 2°56.013 126.9 0.1 169 8.2
2012-06-14 04:42:41 51°13.63 2°56.013 127 0.2 149 8.2
2012-06-14 04:42:46 51°13.63 2°56.013 127.1 0.1 185 8.2
2012-06-14 04:42:51 51°13.629 2°56.013 127.6 0.1 136 8.2
2012-06-14 04:42:55 51°13.629 2°56.013 127.9 0.1 209 -999
2012-06-14 04:43:00 51°13.629 2°56.013 128.1 0.1 276 8.3
2012-06-14 04:43:06 51°13.629 2°56.013 128.5 0.1 154 8.3
2012-06-14 04:43:11 51°13.629 2°56.013 128.6 -999 281 -999
2012-06-14 04:43:16 51°13.629 2°56.013 128.7 0.1 300 -999
2012-06-14 04:43:22 51°13.629 2°56.013 128.7 0.1 333 8.1
2012-06-14 04:43:27 51°13.629 2°56.013 128.7 -999 219 8.1
2012-06-14 04:43:32 51°13.629 2°56.013 128.7 0.1 359 8.2
2012-06-14 04:43:36 51°13.629 2°56.013 128.7 0.1 22 8.2
2012-06-14 04:43:41 51°13.629 2°56.013 128.7 -999 284 -999
2012-06-14 04:43:46 51°13.629 2°56.013 128.7 0.1 218 8.3
2012-06-14 04:43:51 51°13.629 2°56.013 128.7 0.1 180 8.1
2012-06-14 04:43:56 51°13.629 2°56.013 128.7 -999 319 8.2
2012-06-14 04:44:00 51°13.629 2°56.013 128.7 -999 47 8.2
2012-06-14 04:44:06 51°13.629 2°56.014 128.7 -999 233 -999
2012-06-14 04:44:11 51°13.629 2°56.014 128.6 -999 172 8.1
2012-06-14 04:44:17 51°13.629 2°56.014 128.6 0.1 193 8.1
2012-06-14 04:44:21 51°13.629 2°56.014 128.6 0.1 198 -999
2012-06-14 04:44:26 51°13.63 2°56.014 128.6 0.1 124 8.1
2012-06-14 04:44:31 51°13.63 2°56.014 128.6 -999 159 8.1
2012-06-14 04:44:36 51°13.63 2°56.014 128.6 -999 130 8.1
2012-06-14 04:44:41 51°13.63 2°56.014 128.6 0.1 303 8.1
2012-06-14 04:44:45 51°13.63 2°56.014 128.5 0.1 254 8.1
2012-06-14 04:44:51 51°13.631 2°56.014 128.5 0.1 238 8.2
2012-06-14 04:44:56 51°13.631 2°56.014 128.5 0.1 324 -999
2012-06-14 04:45:01 51°13.631 2°56.014 128.5 0.1 331 -999
2012-06-14 04:45:06 51°13.631 2°56.014 128.5 -999 244 8.2
2012-06-14 04:45:11 51°13.631 2°56.014 128.5 0.1 246 8.2
2012-06-14 04:45:16 51°13.631 2°56.014 128.5 -999 343 8.2
2012-06-14 04:45:21 51°13.631 2°56.014 128.5 -999 125 8.2
2012-06-14 04:45:25 51°13.631 2°56.014 128.5 0.1 166 8.2
2012-06-14 04:45:30 51°13.631 2°56.014 128.5 0.1 187 8.3
2012-06-14 04:45:36 51°13.631 2°56.014 128.5 0.1 234 8.1
2012-06-14 04:45:41 51°13.631 2°56.014 128.5 0.1 264 8.3
2012-06-14 04:45:46 51°13.631 2°56.014 128.5 -999 161 -999
2012-06-14 04:45:51 51°13.631 2°56.014 128.5 0.1 162 8.3
2012-06-14 04:45:56 51°13.631 2°56.015 128.5 0.1 50 8.2
2012-06-14 04:46:01 51°13.631 2°56.015 128.5 0.1 76 8.1
2012-06-14 04:46:06 51°13.631 2°56.015 128.5 -999 104 8.2
2012-06-14 04:46:11 51°13.631 2°56.015 128.2 -999 121 8.2
2012-06-14 04:46:16 51°13.631 2°56.015 127.8 0.1 162 8.1
2012-06-14 04:46:21 51°13.631 2°56.015 127.1 0.1 142 8.2
2012-06-14 04:46:25 51°13.631 2°56.015 126.2 0.1 323 8.1
2012-06-14 04:46:30 51°13.631 2°56.015 125.5 -999 29 8.1
2012-06-14 04:46:36 51°13.631 2°56.015 124.7 0.1 131 -999
2012-06-14 04:46:41 51°13.631 2°56.015 123.6 -999 83 8.2
2012-06-14 04:46:45 51°13.631 2°56.014 123 -999 130 8.3
2012-06-14 04:46:51 51°13.631 2°56.015 122.6 0.1 129 8.2
2012-06-14 04:46:56 51°13.63 2°56.014 121.7 0.2 181 8.3
2012-06-14 04:47:02 51°13.631 2°56.014 121 0.1 200 8.4
2012-06-14 04:47:06 51°13.63 2°56.014 120 0.1 175 8.1
2012-06-14 04:47:11 51°13.63 2°56.014 119.1 0.1 182 8.1
2012-06-14 04:47:16 51°13.631 2°56.014 118.3 -999 239 8.2
2012-06-14 04:47:21 51°13.63 2°56.014 117.3 0.1 271 8.2
2012-06-14 04:47:26 51°13.63 2°56.014 116.2 0.2 190 8.1
2012-06-14 04:47:30 51°13.63 2°56.014 115.3 0.1 160 -999
2012-06-14 04:47:36 51°13.63 2°56.014 114 0.1 242 -999
2012-06-14 04:47:41 51°13.63 2°56.014 112.9 0.1 239 8.5
2012-06-14 04:47:46 51°13.63 2°56.014 111.8 0.1 278 8.3
2012-06-14 04:47:50 51°13.63 2°56.014 110.8 0.1 273 8.2
2012-06-14 04:47:56 51°13.63 2°56.014 110 0.3 270 -999
2012-06-14 04:48:01 51°13.631 2°56.012 109.5 0.7 293 8.3
2012-06-14 04:48:06 51°13.631 2°56.01 109 1 284 8.4
2012-06-14 04:48:10 51°13.631 2°56.007 108.8 1.3 288 8.2
2012-06-14 04:48:15 51°13.632 2°56.003 108.7 1.9 290 -999
2012-06-14 04:48:22 51°13.633 2°55.996 108.8 2.4 290 -999
2012-06-14 04:48:27 51°13.635 2°55.99 109 3 292 -999
2012-06-14 04:48:31 51°13.636 2°55.984 109.1 3.2 290 -999
2012-06-14 04:48:37 51°13.638 2°55.976 109.4 3.5 290 -999
2012-06-14 04:48:42 51°13.64 2°55.968 109.8 3.7 289 -999
2012-06-14 04:48:47 51°13.642 2°55.96 110.4 3.9 291 -999
2012-06-14 04:48:51 51°13.643 2°55.953 110.9 4.1 290 -999
2012-06-14 04:48:56 51°13.645 2°55.945 111.4 4.2 289 -999
2012-06-14 04:49:01 51°13.647 2°55.936 111.9 4.2 290 -999
2012-06-14 04:49:06 51°13.649 2°55.927 112.6 4.4 291 -999
2012-06-14 04:49:11 51°13.651 2°55.918 113.8 4.5 291 -999
2012-06-14 04:49:16 51°13.654 2°55.909 114.8 4.5 292 -999
2012-06-14 04:49:21 51°13.656 2°55.899 116.2 4.6 293 -999
2012-06-14 04:49:27 51°13.659 2°55.889 117.9 4.7 295 -999
2012-06-14 04:49:32 51°13.663 2°55.879 119.7 4.7 298 -999
2012-06-14 04:49:36 51°13.665 2°55.872 121.3 4.7 298 -999
2012-06-14 04:49:42 51°13.669 2°55.861 123.2 4.9 300 -999
2012-06-14 04:49:46 51°13.672 2°55.853 124.7 4.9 302 -999
2012-06-14 04:49:51 51°13.676 2°55.844 126 5 303 -999
2012-06-14 04:49:56 51°13.68 2°55.835 127.1 5.1 304 -999
2012-06-14 04:50:01 51°13.684 2°55.826 128.2 5.1 305 -999
2012-06-14 04:50:07 51°13.689 2°55.816 129.2 4.9 306 -999
2012-06-14 04:50:11 51°13.692 2°55.808 130.1 5 306 -999
2012-06-14 04:50:16 51°13.697 2°55.799 131 5.1 308 -999
2012-06-14 04:50:21 51°13.701 2°55.791 131.9 5.2 309 -999
2012-06-14 04:50:27 51°13.707 2°55.78 132.7 5.1 310 -999
2012-06-14 04:50:32 51°13.712 2°55.772 133.5 5.2 311 -999
2012-06-14 04:50:37 51°13.717 2°55.763 134.2 5.2 311 -999
2012-06-14 04:50:42 51°13.722 2°55.755 134.7 5.2 313 -999
2012-06-14 04:50:47 51°13.727 2°55.746 135.7 5.2 313 -999
2012-06-14 04:50:52 51°13.732 2°55.738 136.8 5.3 315 -999
2012-06-14 04:50:57 51°13.738 2°55.73 138.1 5.3 316 -999
2012-06-14 04:51:01 51°13.742 2°55.724 139.4 5.3 317 -999
2012-06-14 04:51:07 51°13.749 2°55.714 140.2 5.2 317 -999
2012-06-14 04:51:12 51°13.754 2°55.706 140.9 5.3 318 -999
2012-06-14 04:51:17 51°13.76 2°55.698 141.6 5.3 319 -999
2012-06-14 04:51:21 51°13.764 2°55.692 143 5.3 320 -999
2012-06-14 04:51:27 51°13.772 2°55.683 144.5 5.4 322 -999
2012-06-14 04:51:32 51°13.778 2°55.676 146 5.4 323 -999
2012-06-14 04:51:37 51°13.784 2°55.669 147.6 5.4 325 -999
2012-06-14 04:51:41 51°13.789 2°55.664 149.3 5.4 326 -999
2012-06-14 04:51:46 51°13.795 2°55.658 151.1 5.4 328 -999
2012-06-14 04:51:51 51°13.801 2°55.652 153.2 5.4 330 -999
2012-06-14 04:51:57 51°13.809 2°55.645 155.3 5.4 332 -999
2012-06-14 04:52:01 51°13.815 2°55.641 157.4 5.4 335 -999
2012-06-14 04:52:06 51°13.822 2°55.636 159.4 5.3 337 -999
2012-06-14 04:52:11 51°13.828 2°55.632 161.6 5.3 339 -999
2012-06-14 04:52:16 51°13.835 2°55.628 163.7 5.3 341 -999
2012-06-14 04:52:21 51°13.843 2°55.624 165.8 5.4 342 -999
2012-06-14 04:52:26 51°13.85 2°55.621 168.4 5.3 345 -999
2012-06-14 04:52:32 51°13.859 2°55.618 170.2 5.4 347 -999
2012-06-14 04:52:37 51°13.866 2°55.616 172.6 5.4 349 -999
2012-06-14 04:52:42 51°13.873 2°55.614 174.9 5.3 351 -999
2012-06-14 04:52:46 51°13.879 2°55.613 177.2 5.2 353 -999
2012-06-14 04:52:51 51°13.886 2°55.613 179.5 5.2 356 -999
2012-06-14 04:52:56 51°13.893 2°55.612 181.8 5.1 358 -999
2012-06-14 04:53:01 51°13.9 2°55.612 184.1 5.1 -999 -999
2012-06-14 04:53:06 51°13.907 2°55.613 186.6 4.9 2 -999
2012-06-14 04:53:12 51°13.914 2°55.614 188.9 4.8 5 -999
2012-06-14 04:53:16 51°13.92 2°55.615 191.4 4.7 7 -999
2012-06-14 04:53:21 51°13.926 2°55.617 193.8 4.5 10 -999
2012-06-14 04:53:26 51°13.932 2°55.619 196.3 4.4 11 -999
2012-06-14 04:53:32 51°13.939 2°55.621 198.8 4.3 14 -999
2012-06-14 04:53:37 51°13.944 2°55.624 201.4 4.1 17 -999
2012-06-14 04:53:41 51°13.949 2°55.626 204 4 19 -999
2012-06-14 04:53:46 51°13.954 2°55.629 206.7 3.8 20 -999
2012-06-14 04:53:52 51°13.959 2°55.633 209.1 3.5 23 -999
2012-06-14 04:53:56 51°13.962 2°55.635 211.3 3.3 24 -999
2012-06-14 04:54:01 51°13.966 2°55.638 213.6 2.8 27 -999
2012-06-14 04:54:06 51°13.969 2°55.64 216.2 2.3 27 -999
2012-06-14 04:54:10 51°13.971 2°55.641 219.1 1.6 27 -999
2012-06-14 04:54:17 51°13.973 2°55.643 222.3 1.2 24 -999
2012-06-14 04:54:22 51°13.974 2°55.643 226.7 0.8 14 -999
2012-06-14 04:54:27 51°13.974 2°55.643 231.6 0.5 336 -999
2012-06-14 04:54:31 51°13.974 2°55.642 237.3 0.5 283 -999
2012-06-14 04:54:37 51°13.974 2°55.639 243.2 0.9 273 -999
2012-06-14 04:54:42 51°13.974 2°55.636 249.7 1.3 269 -999
2012-06-14 04:54:46 51°13.974 2°55.634 256.4 1.6 274 -999
2012-06-14 04:54:51 51°13.975 2°55.629 263.2 1.9 276 -999
2012-06-14 04:54:56 51°13.975 2°55.625 270.2 2.2 282 -999
2012-06-14 04:55:02 51°13.976 2°55.618 277.3 2.4 284 -999
2012-06-14 04:55:06 51°13.977 2°55.614 284.2 2.7 292 -999
2012-06-14 04:55:11 51°13.979 2°55.608 291.1 3 294 -999
2012-06-14 04:55:16 51°13.981 2°55.602 298.1 3.3 302 -999
2012-06-14 04:55:22 51°13.985 2°55.593 303.7 3.7 305 -999
2012-06-14 04:55:27 51°13.989 2°55.586 307.5 4.1 309 -999
2012-06-14 04:55:32 51°13.993 2°55.579 312.6 4.7 312 -999
2012-06-14 04:55:36 51°13.998 2°55.572 315.8 5.2 315 -999
2012-06-14 04:55:41 51°14.003 2°55.563 317.9 5.8 316 -999
2012-06-14 04:55:46 51°14.01 2°55.554 319.3 6.2 318 -999
2012-06-14 04:55:51 51°14.017 2°55.545 320.9 6.6 320 -999
2012-06-14 04:55:56 51°14.024 2°55.535 322.7 6.8 321 -999
2012-06-14 04:56:01 51°14.032 2°55.526 324.7 7.2 323 -999
2012-06-14 04:56:06 51°14.041 2°55.516 325.9 7.5 324 10.6
2012-06-14 04:56:11 51°14.049 2°55.506 326.7 7.8 325 -999
2012-06-14 04:56:17 51°14.06 2°55.495 328.2 7.8 327 -999
2012-06-14 04:56:21 51°14.068 2°55.487 329.3 8 327 -999
2012-06-14 04:56:26 51°14.077 2°55.477 329.4 8.2 326 10.6
2012-06-14 04:56:31 51°14.087 2°55.468 329.3 8.3 328 10.6
2012-06-14 04:56:37 51°14.099 2°55.456 330.3 8.5 327 -999
2012-06-14 04:56:42 51°14.109 2°55.446 329.7 8.5 327 -999
2012-06-14 04:56:46 51°14.117 2°55.437 329.6 8.6 327 -999
2012-06-14 04:56:51 51°14.127 2°55.427 329.6 8.6 328 -999
2012-06-14 04:56:57 51°14.14 2°55.415 330.3 8.7 328 -999
2012-06-14 04:57:02 51°14.15 2°55.404 330.7 8.8 328 -999
2012-06-14 04:57:06 51°14.159 2°55.396 330.8 8.8 329 -999
2012-06-14 04:57:11 51°14.169 2°55.386 330.9 8.9 329 -999
2012-06-14 04:57:16 51°14.18 2°55.376 331.2 8.9 329 -999
2012-06-14 04:57:21 51°14.19 2°55.366 331.7 9.1 329 -999
2012-06-14 04:57:26 51°14.201 2°55.355 331.5 9.1 328 -999
2012-06-14 04:57:32 51°14.214 2°55.343 331.5 9.2 330 -999
2012-06-14 04:57:37 51°14.225 2°55.332 332.1 9.2 330 -999
2012-06-14 04:57:42 51°14.236 2°55.322 332 9.2 329 -999
2012-06-14 04:57:47 51°14.248 2°55.312 331.8 9.2 330 -999
2012-06-14 04:57:51 51°14.256 2°55.304 332.8 9.2 331 -999
2012-06-14 04:57:56 51°14.268 2°55.294 333.4 9.3 330 -999
2012-06-14 04:58:01 51°14.279 2°55.284 333.6 9.3 332 -999
2012-06-14 04:58:07 51°14.292 2°55.271 333.2 9.3 330 -999
2012-06-14 04:58:11 51°14.301 2°55.264 333 9.3 331 -999
2012-06-14 04:58:16 51°14.313 2°55.253 332.9 9.4 330 -999
2012-06-14 04:58:22 51°14.327 2°55.241 332.8 9.6 331 -999
2012-06-14 04:58:26 51°14.336 2°55.232 333.2 9.6 330 -999
2012-06-14 04:58:31 51°14.348 2°55.221 332.6 9.8 329 -999
2012-06-14 04:58:37 51°14.362 2°55.208 331.6 9.8 329 -999
2012-06-14 04:58:41 51°14.371 2°55.198 330.5 9.9 327 -999
2012-06-14 04:58:46 51°14.383 2°55.187 330.3 9.9 328 -999
2012-06-14 04:58:51 51°14.394 2°55.175 329.7 10 327 -999
2012-06-14 04:58:57 51°14.408 2°55.16 329 10.1 326 -999
2012-06-14 04:59:02 51°14.42 2°55.147 328.9 10.2 327 -999
2012-06-14 04:59:06 51°14.43 2°55.138 329.7 10.3 327 -999
2012-06-14 04:59:11 51°14.442 2°55.125 329.4 10.4 326 -999
2012-06-14 04:59:16 51°14.454 2°55.112 329.2 10.4 327 -999
2012-06-14 04:59:22 51°14.468 2°55.096 328.9 10.4 325 -999
2012-06-14 04:59:27 51°14.48 2°55.083 328.1 10.5 325 -999
2012-06-14 04:59:31 51°14.49 2°55.072 327.8 10.6 325 -999
2012-06-14 04:59:36 51°14.502 2°55.059 328.3 10.6 325 -999
2012-06-14 04:59:42 51°14.516 2°55.043 328.7 10.5 324 10.8
2012-06-14 04:59:46 51°14.525 2°55.031 328.1 10.5 322 11.1
2012-06-14 04:59:51 51°14.537 2°55.016 326.7 10.6 321 11.6
2012-06-14 04:59:56 51°14.548 2°55.002 325.7 10.7 322 12.1
2012-06-14 05:00:01 51°14.56 2°54.987 326 10.9 322 12.1
2012-06-14 05:00:06 51°14.572 2°54.971 326.9 11.1 322 12.4
2012-06-14 05:00:11 51°14.584 2°54.955 327.4 11.2 320 12.4
2012-06-14 05:00:15 51°14.594 2°54.942 326.6 11.4 321 12.5
2012-06-14 05:00:20 51°14.606 2°54.927 326.9 11.3 320 12.3
2012-06-14 05:00:25 51°14.619 2°54.91 326.9 11.4 320 12.1
2012-06-14 05:00:30 51°14.631 2°54.894 326.3 11.6 319 11.8
2012-06-14 05:00:35 51°14.643 2°54.877 325.4 11.7 320 11.5
2012-06-14 05:00:39 51°14.653 2°54.863 325.6 11.7 320 11.7
2012-06-14 05:00:44 51°14.666 2°54.846 325.6 11.9 319 11.7
2012-06-14 05:00:49 51°14.678 2°54.829 325.2 12 318 11.8
2012-06-14 05:00:54 51°14.691 2°54.811 324.4 12 319 11.5
2012-06-14 05:00:59 51°14.703 2°54.794 324.5 12 319 11.2
2012-06-14 05:01:03 51°14.713 2°54.78 324.2 12 317 11.2
2012-06-14 05:01:08 51°14.725 2°54.762 323.8 12 318 11.2
2012-06-14 05:01:14 51°14.741 2°54.741 323.9 12.1 320 11.7
2012-06-14 05:01:18 51°14.751 2°54.728 325.5 12.1 322 11.7
2012-06-14 05:01:23 51°14.764 2°54.712 327.6 12.1 323 11.5
2012-06-14 05:01:28 51°14.778 2°54.696 329.1 12.1 323 11.4
2012-06-14 05:01:33 51°14.791 2°54.679 328.6 12.1 322 11.5
2012-06-14 05:01:38 51°14.804 2°54.664 329.1 12.2 324 11.4
2012-06-14 05:01:43 51°14.818 2°54.648 330 12.2 323 11.9
2012-06-14 05:01:47 51°14.829 2°54.635 330.7 12.1 325 11.5
2012-06-14 05:01:53 51°14.845 2°54.616 330.3 12 323 11.5
2012-06-14 05:01:58 51°14.859 2°54.6 329.6 12.3 322 11.9
2012-06-14 05:02:04 51°14.874 2°54.579 328.2 12.3 320 -999
2012-06-14 05:02:09 51°14.887 2°54.56 326 12.5 318 11.8
2012-06-14 05:02:14 51°14.9 2°54.542 324.2 12.4 318 12
2012-06-14 05:02:19 51°14.913 2°54.525 324.9 12.2 320 12.2
2012-06-14 05:02:25 51°14.927 2°54.502 325.3 12.2 316 -999
2012-06-14 05:02:30 51°14.94 2°54.483 323.3 12.3 315 11.8
2012-06-14 05:02:35 51°14.952 2°54.464 321.7 12.4 315 11.8
2012-06-14 05:02:39 51°14.961 2°54.449 321.1 12.2 315 12
2012-06-14 05:02:44 51°14.973 2°54.43 321 12.3 315 11.1
2012-06-14 05:02:49 51°14.986 2°54.411 321.7 12.2 317 11.2
2012-06-14 05:02:54 51°14.998 2°54.393 322.5 12.2 317 11.3
2012-06-14 05:02:59 51°15.01 2°54.374 323.1 12.2 317 11
2012-06-14 05:03:03 51°15.02 2°54.359 323.1 12.2 316 11
2012-06-14 05:03:08 51°15.032 2°54.34 322.3 12.2 315 10.1
2012-06-14 05:03:14 51°15.046 2°54.316 321 12.3 314 9.6
2012-06-14 05:03:19 51°15.058 2°54.297 319.7 12.2 313 9.4
2012-06-14 05:03:23 51°15.068 2°54.281 319.5 12.3 314 9.3
2012-06-14 05:03:28 51°15.079 2°54.262 320.3 12.1 315 9.1
2012-06-14 05:03:33 51°15.091 2°54.244 321.3 12 316 9.2
2012-06-14 05:03:38 51°15.104 2°54.225 322.3 12.1 316 9.2
2012-06-14 05:03:43 51°15.116 2°54.207 323.1 12.2 317 9.4
2012-06-14 05:03:48 51°15.128 2°54.189 323.8 12.3 317 9.4
2012-06-14 05:03:53 51°15.14 2°54.17 323.7 12.2 316 9
2012-06-14 05:03:58 51°15.152 2°54.151 321.9 12.1 314 9.3
2012-06-14 05:04:03 51°15.164 2°54.133 321.7 12.1 317 9.5
2012-06-14 05:04:08 51°15.177 2°54.114 322.3 12.3 316 9.6
2012-06-14 05:04:13 51°15.189 2°54.096 322.8 12.1 318 9.5
2012-06-14 05:04:18 51°15.201 2°54.078 323.5 12.1 318 9.5
2012-06-14 05:04:23 51°15.213 2°54.06 324 12.1 318 9.9
2012-06-14 05:04:28 51°15.226 2°54.044 325.3 12 320 9.7
2012-06-14 05:04:33 51°15.239 2°54.027 326.6 11.9 320 9.6
2012-06-14 05:04:38 51°15.252 2°54.01 326.5 11.9 319 9.7
2012-06-14 05:04:43 51°15.265 2°53.993 326.3 12 321 9.9
2012-06-14 05:04:48 51°15.278 2°53.977 327.6 12 322 9.9
2012-06-14 05:04:53 51°15.291 2°53.961 329.2 12 324 9.8
2012-06-14 05:04:58 51°15.304 2°53.944 329.6 11.9 322 9.7
2012-06-14 05:05:03 51°15.317 2°53.928 329.3 11.9 323 10
2012-06-14 05:05:08 51°15.331 2°53.913 329.6 12 323 9.9
2012-06-14 05:05:13 51°15.344 2°53.896 328.9 12 322 10.1
2012-06-14 05:05:18 51°15.357 2°53.88 328.9 12 323 10.3
2012-06-14 05:05:23 51°15.371 2°53.866 330.5 11.9 325 10.3
2012-06-14 05:05:27 51°15.382 2°53.854 331.7 11.8 325 10.2
2012-06-14 05:05:33 51°15.399 2°53.836 332.2 12 326 10.8
2012-06-14 05:05:38 51°15.413 2°53.821 332.2 12 326 10.6
2012-06-14 05:05:43 51°15.426 2°53.807 332.9 11.9 327 10.4
2012-06-14 05:05:47 51°15.438 2°53.795 333.6 12 327 10.2
2012-06-14 05:05:53 51°15.455 2°53.778 333.6 12.1 327 10.4
2012-06-14 05:05:58 51°15.469 2°53.764 334.2 12 329 10.7
2012-06-14 05:06:03 51°15.483 2°53.751 336.1 12.1 329 11.2
2012-06-14 05:06:08 51°15.497 2°53.735 335.3 12.1 326 10.9
2012-06-14 05:06:13 51°15.51 2°53.721 333 12.1 326 10.8
2012-06-14 05:06:18 51°15.524 2°53.706 333.2 11.9 327 11.2
2012-06-14 05:06:23 51°15.538 2°53.693 335 11.9 329 11.3
2012-06-14 05:06:27 51°15.549 2°53.681 335.3 12 327 11.2
2012-06-14 05:06:33 51°15.566 2°53.664 334 12 327 11.4
2012-06-14 05:06:38 51°15.58 2°53.65 334.7 11.9 329 11.2
2012-06-14 05:06:43 51°15.594 2°53.636 335 11.9 328 11.3
2012-06-14 05:06:48 51°15.608 2°53.622 335 11.9 329 11.4
2012-06-14 05:06:53 51°15.623 2°53.608 335.4 11.9 328 11.4
2012-06-14 05:06:58 51°15.637 2°53.595 336.1 12.1 329 11.6
2012-06-14 05:07:03 51°15.651 2°53.58 335.6 12.2 327 11.7
2012-06-14 05:07:08 51°15.665 2°53.566 334.8 12.1 327 11.6
2012-06-14 05:07:13 51°15.68 2°53.552 334 12.1 327 11.7
2012-06-14 05:07:18 51°15.694 2°53.538 334.3 12.1 328 11.9
2012-06-14 05:07:23 51°15.708 2°53.524 334.9 12.1 329 12.1
2012-06-14 05:07:28 51°15.723 2°53.51 336 12 330 11.8
2012-06-14 05:07:33 51°15.737 2°53.497 337.2 11.9 330 12.1
2012-06-14 05:07:38 51°15.751 2°53.483 336.9 11.9 328 12.4
2012-06-14 05:07:43 51°15.765 2°53.469 335.5 12.1 328 12.5
2012-06-14 05:07:48 51°15.78 2°53.456 335.6 12.1 329 12.4
2012-06-14 05:07:53 51°15.793 2°53.441 335.6 11.9 328 12.2
2012-06-14 05:07:58 51°15.808 2°53.428 335.5 12 329 12.2
2012-06-14 05:08:03 51°15.822 2°53.414 335.4 12 328 12.5
2012-06-14 05:08:08 51°15.837 2°53.4 335.3 12.2 329 13
2012-06-14 05:08:13 51°15.851 2°53.386 335.2 12.3 329 12.5
2012-06-14 05:08:18 51°15.865 2°53.372 335.5 11.9 329 12.4
2012-06-14 05:08:23 51°15.879 2°53.358 335.6 12 329 12.5
2012-06-14 05:08:27 51°15.891 2°53.347 335.5 12 329 12.5
2012-06-14 05:08:33 51°15.907 2°53.331 335.5 11.9 329 12.6
2012-06-14 05:08:38 51°15.922 2°53.318 336 12 330 12.4
2012-06-14 05:08:43 51°15.937 2°53.304 336.6 12.2 330 12.8
2012-06-14 05:08:48 51°15.952 2°53.291 336.9 12.2 330 12.9
2012-06-14 05:08:53 51°15.966 2°53.278 337 12 330 12.7
2012-06-14 05:08:58 51°15.98 2°53.265 336.9 12 330 12.6
2012-06-14 05:09:03 51°15.995 2°53.251 336.8 12.1 330 12.9
2012-06-14 05:09:08 51°16.009 2°53.238 336.6 12.1 330 12.8
2012-06-14 05:09:13 51°16.024 2°53.225 336.4 12 330 13.2
2012-06-14 05:09:18 51°16.038 2°53.212 337.1 12 331 13.1
2012-06-14 05:09:23 51°16.052 2°53.2 337.8 11.7 332 12.6
2012-06-14 05:09:28 51°16.067 2°53.188 339 11.7 333 13.2
2012-06-14 05:09:33 51°16.082 2°53.176 339.3 11.9 333 12.9
2012-06-14 05:09:38 51°16.096 2°53.165 339.8 11.7 334 12.8
2012-06-14 05:09:43 51°16.111 2°53.154 341.2 11.8 335 13.3
2012-06-14 05:09:47 51°16.124 2°53.145 342.1 12 337 13.3
2012-06-14 05:09:53 51°16.142 2°53.133 343.1 11.7 338 12.8
2012-06-14 05:09:58 51°16.157 2°53.124 343.9 11.7 338 13.1
2012-06-14 05:10:03 51°16.172 2°53.114 344.5 11.8 339 13.2
2012-06-14 05:10:08 51°16.187 2°53.105 344.9 11.6 339 12.8
2012-06-14 05:10:13 51°16.203 2°53.096 345.3 11.8 339 13
2012-06-14 05:10:18 51°16.218 2°53.086 345 11.9 338 12.9
2012-06-14 05:10:23 51°16.233 2°53.077 344.9 11.6 339 12.4
2012-06-14 05:10:28 51°16.248 2°53.067 345.3 11.8 339 12.7
2012-06-14 05:10:33 51°16.264 2°53.058 345.5 11.9 339 12.9
2012-06-14 05:10:38 51°16.278 2°53.049 345.6 11.8 339 12.9
2012-06-14 05:10:43 51°16.293 2°53.04 345.6 11.7 339 12.9
2012-06-14 05:10:48 51°16.308 2°53.03 345.1 11.8 338 12.6
2012-06-14 05:10:53 51°16.323 2°53.02 345 11.7 338 12.8
2012-06-14 05:10:58 51°16.339 2°53.011 345.2 11.7 338 12.7
2012-06-14 05:11:03 51°16.354 2°53.001 345.3 11.8 339 12.8
2012-06-14 05:11:08 51°16.37 2°52.992 345.3 11.9 339 13
2012-06-14 05:11:13 51°16.385 2°52.982 345.6 11.8 340 13
2012-06-14 05:11:18 51°16.4 2°52.973 346.3 11.8 340 13.2
2012-06-14 05:11:23 51°16.416 2°52.965 347.4 11.8 341 13
2012-06-14 05:11:28 51°16.431 2°52.955 346.7 11.7 339 12.6
2012-06-14 05:11:33 51°16.447 2°52.947 346.6 11.7 341 12.4
2012-06-14 05:11:38 51°16.462 2°52.939 347.2 11.5 341 12.2
2012-06-14 05:11:43 51°16.477 2°52.93 346.3 11.7 340 12.4
2012-06-14 05:11:48 51°16.493 2°52.921 345.8 11.8 340 12.4
2012-06-14 05:11:53 51°16.508 2°52.911 344.9 11.6 338 12.3
2012-06-14 05:11:58 51°16.523 2°52.902 344.3 11.6 339 12.2
2012-06-14 05:12:03 51°16.538 2°52.892 343.8 11.6 337 12.2
2012-06-14 05:12:07 51°16.55 2°52.884 343.3 11.7 339 12.4
2012-06-14 05:12:13 51°16.569 2°52.872 343.4 11.9 338 12.4
2012-06-14 05:12:18 51°16.583 2°52.863 343.4 11.6 338 12.2
2012-06-14 05:12:23 51°16.598 2°52.853 343.1 11.6 337 11.9
2012-06-14 05:12:27 51°16.61 2°52.844 342.4 11.6 335 11.9
2012-06-14 05:12:33 51°16.627 2°52.83 340.9 11.6 333 11.7
2012-06-14 05:12:38 51°16.641 2°52.818 338.9 11.5 333 11.7
2012-06-14 05:12:43 51°16.656 2°52.806 338.6 11.6 332 11.2
2012-06-14 05:12:48 51°16.67 2°52.794 338.1 11.5 331 11.1
2012-06-14 05:12:53 51°16.684 2°52.782 337.5 11.5 331 11.2
2012-06-14 05:12:58 51°16.698 2°52.769 337 11.5 331 11.3
2012-06-14 05:13:03 51°16.712 2°52.757 336.9 11.5 331 11.2
2012-06-14 05:13:08 51°16.726 2°52.745 336.7 11.5 331 10.7
2012-06-14 05:13:13 51°16.74 2°52.732 336.9 11.4 331 10.6
2012-06-14 05:13:18 51°16.753 2°52.72 337 11.4 331 10.7
2012-06-14 05:13:23 51°16.767 2°52.708 337.2 11.4 332 10.7
2012-06-14 05:13:28 51°16.781 2°52.696 337.6 11.4 331 10.4
2012-06-14 05:13:33 51°16.796 2°52.685 338.3 11.4 333 10.3
2012-06-14 05:13:38 51°16.81 2°52.674 339.9 11.3 335 10.4
2012-06-14 05:13:43 51°16.824 2°52.664 340.8 11.5 336 10.5
2012-06-14 05:13:48 51°16.839 2°52.654 342.4 11.4 337 10.1
2012-06-14 05:13:53 51°16.853 2°52.645 343.4 11.3 339 10
2012-06-14 05:13:58 51°16.869 2°52.636 344.8 11.4 340 10
2012-06-14 05:14:03 51°16.883 2°52.628 345.9 11.2 339 10
2012-06-14 05:14:08 51°16.897 2°52.619 345.4 11.2 338 10.5
2012-06-14 05:14:13 51°16.912 2°52.609 344.7 11.4 337 10.6
2012-06-14 05:14:18 51°16.927 2°52.599 343.4 11.3 335 10.8
2012-06-14 05:14:23 51°16.941 2°52.588 342.1 11.4 335 10.2
2012-06-14 05:14:27 51°16.952 2°52.58 341.3 11.4 335 10.7
2012-06-14 05:14:33 51°16.969 2°52.567 341 11.4 334 10.3
2012-06-14 05:14:38 51°16.983 2°52.556 340.2 11.3 334 10.1
2012-06-14 05:14:43 51°16.997 2°52.544 340.3 11.4 333 10.2
2012-06-14 05:14:48 51°17.011 2°52.532 339.5 11.3 332 9.7
2012-06-14 05:14:53 51°17.025 2°52.522 339.5 11.3 334 10.1
2012-06-14 05:14:58 51°17.039 2°52.511 339.8 11.3 335 10.4
2012-06-14 05:15:03 51°17.054 2°52.5 340.6 11.3 335 10.2
2012-06-14 05:15:08 51°17.068 2°52.49 340.6 11.3 335 10.2
2012-06-14 05:15:13 51°17.082 2°52.479 340.7 11.3 335 10.4
2012-06-14 05:15:18 51°17.096 2°52.468 340.6 11.3 335 10.3
2012-06-14 05:15:23 51°17.111 2°52.458 340.5 11.4 336 10.3
2012-06-14 05:15:27 51°17.122 2°52.45 340.5 11.2 335 10.4
2012-06-14 05:15:33 51°17.139 2°52.436 340.3 11.2 335 10.7
2012-06-14 05:15:38 51°17.153 2°52.426 340.8 11.3 335 10.7
2012-06-14 05:15:43 51°17.167 2°52.415 341.2 11.3 335 10.7
2012-06-14 05:15:48 51°17.182 2°52.405 341.2 11.3 335 11
2012-06-14 05:15:53 51°17.196 2°52.394 341.5 11.3 336 11.3
2012-06-14 05:15:58 51°17.21 2°52.384 341.8 11.2 337 11.1
2012-06-14 05:16:03 51°17.225 2°52.375 342.4 11.3 338 10.7
2012-06-14 05:16:08 51°17.239 2°52.365 343.2 11.3 338 10.9
2012-06-14 05:16:13 51°17.253 2°52.356 343.8 11.1 338 10.8
2012-06-14 05:16:18 51°17.268 2°52.347 344.1 11.1 338 10.9
2012-06-14 05:16:23 51°17.283 2°52.339 344.6 11.2 340 11.1
2012-06-14 05:16:27 51°17.295 2°52.334 347 11.2 344 10.8
2012-06-14 05:16:33 51°17.312 2°52.326 349.2 11.1 345 10.8
2012-06-14 05:16:38 51°17.328 2°52.32 350.7 11.2 347 10.8
2012-06-14 05:16:43 51°17.343 2°52.315 352.1 11.2 347 10.7
2012-06-14 05:16:47 51°17.355 2°52.311 353 11.3 350 11
2012-06-14 05:16:53 51°17.374 2°52.306 354.3 11.2 350 10.8
2012-06-14 05:16:58 51°17.389 2°52.302 355.7 11.2 352 10.8
2012-06-14 05:17:03 51°17.404 2°52.298 356.6 11.1 351 10.9
2012-06-14 05:17:07 51°17.417 2°52.296 357 11.1 352 11.2
2012-06-14 05:17:13 51°17.435 2°52.292 357.9 11.2 352 11.3
2012-06-14 05:17:18 51°17.451 2°52.289 358.4 11.3 354 11.4
2012-06-14 05:17:23 51°17.466 2°52.287 359.1 11.2 354 11.1
2012-06-14 05:17:28 51°17.482 2°52.285 359.6 11.2 355 11.2
2012-06-14 05:17:33 51°17.497 2°52.283 0.1 11.3 355 11.3
2012-06-14 05:17:38 51°17.513 2°52.281 0.2 11.3 355 11.2
2012-06-14 05:17:43 51°17.528 2°52.278 0.6 11.1 354 10.8
2012-06-14 05:17:48 51°17.544 2°52.276 359.3 11.2 353 11.1
2012-06-14 05:17:53 51°17.559 2°52.272 358.5 11.3 353 11.3
2012-06-14 05:17:58 51°17.574 2°52.269 358.1 11.2 352 11.4
2012-06-14 05:18:03 51°17.589 2°52.266 357.6 11.1 352 11.5
2012-06-14 05:18:08 51°17.605 2°52.262 357.2 11.1 352 11.4
2012-06-14 05:18:13 51°17.62 2°52.258 356.9 11.1 351 11.5
2012-06-14 05:18:18 51°17.635 2°52.254 356.5 11.1 351 11.7
2012-06-14 05:18:23 51°17.651 2°52.25 356.1 11.2 350 11.8
2012-06-14 05:18:28 51°17.666 2°52.245 355.6 11.2 350 11.3
2012-06-14 05:18:33 51°17.681 2°52.24 355 11.3 349 11.6
2012-06-14 05:18:38 51°17.696 2°52.235 354.4 11.1 348 11.6
2012-06-14 05:18:43 51°17.711 2°52.23 353.6 11.1 347 11.8
2012-06-14 05:18:47 51°17.723 2°52.225 353.3 11.3 347 11.7
2012-06-14 05:18:53 51°17.742 2°52.218 352.5 11.2 345 11.7
2012-06-14 05:18:58 51°17.757 2°52.212 351.9 11.2 345 11.7
2012-06-14 05:19:03 51°17.772 2°52.205 351.1 11.3 345 11.6
2012-06-14 05:19:07 51°17.784 2°52.2 350.9 11.3 345 11.8
2012-06-14 05:19:13 51°17.802 2°52.191 350.7 11.3 345 11.6
2012-06-14 05:19:18 51°17.817 2°52.185 350.7 11.2 344 11.4
2012-06-14 05:19:23 51°17.832 2°52.179 350.8 11.2 346 11.3
2012-06-14 05:19:28 51°17.847 2°52.172 351.4 11.3 345 11.6
2012-06-14 05:19:33 51°17.863 2°52.166 351.5 11.4 346 11.4
2012-06-14 05:19:38 51°17.878 2°52.161 351.5 11.4 346 11.7
2012-06-14 05:19:43 51°17.893 2°52.155 351.5 11.4 347 11.8
2012-06-14 05:19:48 51°17.909 2°52.149 352 11.4 347 11.8
2012-06-14 05:19:53 51°17.924 2°52.143 352.6 11.4 347 12.1
2012-06-14 05:19:58 51°17.939 2°52.138 352.7 11.4 347 12.3
2012-06-14 05:20:03 51°17.955 2°52.133 352.7 11.4 348 11.9
2012-06-14 05:20:07 51°17.967 2°52.128 353 11.5 348 12
2012-06-14 05:20:13 51°17.985 2°52.122 353.3 11.3 348 11.5
2012-06-14 05:20:18 51°18.001 2°52.117 353.6 11.4 349 11.9
2012-06-14 05:20:23 51°18.016 2°52.112 354 11.3 349 11.9
2012-06-14 05:20:28 51°18.032 2°52.107 354.6 11.4 350 11.9
2012-06-14 05:20:33 51°18.047 2°52.103 355 11.4 350 11.7
2012-06-14 05:20:38 51°18.063 2°52.098 355.3 11.4 349 11.6
2012-06-14 05:20:43 51°18.078 2°52.094 355.7 11.4 350 11.5
2012-06-14 05:20:48 51°18.094 2°52.09 355.9 11.3 350 12
2012-06-14 05:20:53 51°18.109 2°52.086 356.3 11.2 351 12.2
2012-06-14 05:20:58 51°18.125 2°52.082 356.5 11.5 351 12.1
2012-06-14 05:21:03 51°18.14 2°52.078 356.7 11.3 350 11.9
2012-06-14 05:21:07 51°18.153 2°52.075 356.6 11.2 351 12
2012-06-14 05:21:13 51°18.171 2°52.07 357.2 11.3 351 12.3
2012-06-14 05:21:18 51°18.187 2°52.066 356.7 11.3 351 12
2012-06-14 05:21:23 51°18.203 2°52.063 356.8 11.4 352 12.1
2012-06-14 05:21:28 51°18.218 2°52.059 357.4 11.3 350 11.8
2012-06-14 05:21:33 51°18.233 2°52.055 356.9 11.3 352 12.1
2012-06-14 05:21:38 51°18.249 2°52.05 357 11.3 350 11.8
2012-06-14 05:21:43 51°18.264 2°52.047 356.8 11.3 352 11.8
2012-06-14 05:21:48 51°18.28 2°52.043 357 11.2 350 11.9
2012-06-14 05:21:53 51°18.295 2°52.039 356.7 11.3 352 12.4
2012-06-14 05:21:58 51°18.311 2°52.035 356.5 11.4 351 12.5
2012-06-14 05:22:03 51°18.327 2°52.031 356.4 11.4 351 12.3
2012-06-14 05:22:08 51°18.342 2°52.027 356.5 11.5 352 12.4
2012-06-14 05:22:13 51°18.358 2°52.023 357.3 11.5 352 12.1
2012-06-14 05:22:18 51°18.373 2°52.019 357.2 11.4 351 12.3
2012-06-14 05:22:23 51°18.389 2°52.014 356.5 11.5 350 12.2
2012-06-14 05:22:28 51°18.405 2°52.01 355.8 11.5 351 12
2012-06-14 05:22:33 51°18.42 2°52.006 356 11.5 351 12.5
2012-06-14 05:22:38 51°18.436 2°52.003 356.8 11.5 353 12.5
2012-06-14 05:22:43 51°18.452 2°51.999 357.8 11.6 351 12.6
2012-06-14 05:22:48 51°18.467 2°51.995 357.2 11.4 352 12.5
2012-06-14 05:22:53 51°18.483 2°51.992 357.5 11.4 352 12.6
2012-06-14 05:22:58 51°18.499 2°51.988 357.9 11.4 351 12.5
2012-06-14 05:23:03 51°18.515 2°51.984 356.6 11.5 351 12.6
2012-06-14 05:23:08 51°18.53 2°51.98 356.2 11.5 351 12.6
2012-06-14 05:23:13 51°18.547 2°51.977 356.3 11.5 352 12.8
2012-06-14 05:23:18 51°18.563 2°51.973 356.9 11.5 351 13
2012-06-14 05:23:23 51°18.578 2°51.969 356.7 11.6 350 12.9
2012-06-14 05:23:27 51°18.591 2°51.964 355.7 11.5 348 13.1
2012-06-14 05:23:33 51°18.61 2°51.958 353.9 11.6 348 12.8
2012-06-14 05:23:38 51°18.625 2°51.952 353.2 11.5 346 12.9
2012-06-14 05:23:43 51°18.64 2°51.945 352.1 11.6 346 13.3
2012-06-14 05:23:48 51°18.656 2°51.94 351.9 11.7 347 13.6
2012-06-14 05:23:53 51°18.672 2°51.934 352.4 11.6 348 13.8
2012-06-14 05:23:58 51°18.687 2°51.927 353 11.6 346 13.7
2012-06-14 05:24:03 51°18.703 2°51.922 352.5 11.6 346 13.6
2012-06-14 05:24:07 51°18.715 2°51.916 351.5 11.7 345 13.7
2012-06-14 05:24:13 51°18.734 2°51.908 351 11.5 345 13.4
2012-06-14 05:24:18 51°18.749 2°51.901 350.8 11.5 344 13.5
2012-06-14 05:24:23 51°18.765 2°51.894 350.3 11.6 344 14.1
2012-06-14 05:24:28 51°18.78 2°51.888 350.1 11.4 345 14.1
2012-06-14 05:24:33 51°18.795 2°51.881 350.3 11.6 345 14.3
2012-06-14 05:24:38 51°18.811 2°51.876 350.6 11.7 346 14.3
2012-06-14 05:24:43 51°18.827 2°51.87 352 11.6 348 14.2
2012-06-14 05:24:48 51°18.842 2°51.864 353.3 11.4 347 14
2012-06-14 05:24:53 51°18.858 2°51.859 353.8 11.4 349 14.3
2012-06-14 05:24:58 51°18.874 2°51.855 355.2 11.5 351 14.3
2012-06-14 05:25:03 51°18.889 2°51.851 355.9 11.6 351 14.9
2012-06-14 05:25:08 51°18.905 2°51.848 356.3 11.5 352 15
2012-06-14 05:25:13 51°18.921 2°51.843 356.3 11.5 352 14.9
2012-06-14 05:25:18 51°18.937 2°51.84 356.6 11.5 351 14.9
2012-06-14 05:25:23 51°18.953 2°51.836 357.1 11.5 352 14.9
2012-06-14 05:25:28 51°18.969 2°51.833 357.8 11.6 353 14.9
2012-06-14 05:25:33 51°18.984 2°51.83 358.4 11.6 354 14.9
2012-06-14 05:25:38 51°19 2°51.827 359.2 11.6 354 15
2012-06-14 05:25:43 51°19.016 2°51.825 -999 11.5 355 15.1
2012-06-14 05:25:47 51°19.029 2°51.823 0.3 11.7 355 15.6
2012-06-14 05:25:53 51°19.048 2°51.821 0.9 11.6 356 15.2
2012-06-14 05:25:58 51°19.064 2°51.819 1.5 11.4 356 15.3
2012-06-14 05:26:03 51°19.08 2°51.817 1.9 11.5 357 15.3
2012-06-14 05:26:08 51°19.096 2°51.816 2.6 11.6 357 15.6
2012-06-14 05:26:13 51°19.112 2°51.814 2.6 11.5 357 15.4
2012-06-14 05:26:18 51°19.127 2°51.813 2.9 11.4 357 15.5
2012-06-14 05:26:23 51°19.144 2°51.812 3 11.6 357 15.4
2012-06-14 05:26:28 51°19.16 2°51.811 3 11.7 357 15.4
2012-06-14 05:26:33 51°19.176 2°51.81 2.8 11.5 357 15.3
2012-06-14 05:26:38 51°19.192 2°51.808 2.4 11.5 356 15.6
2012-06-14 05:26:43 51°19.207 2°51.806 1.9 11.3 355 15.6
2012-06-14 05:26:47 51°19.221 2°51.804 1.7 11.5 355 15.8
2012-06-14 05:26:53 51°19.24 2°51.802 1.4 11.6 355 16
2012-06-14 05:26:58 51°19.256 2°51.8 0.8 11.5 355 15.9
2012-06-14 05:27:03 51°19.271 2°51.797 0.5 11.4 354 16.3
2012-06-14 05:27:08 51°19.287 2°51.795 1.4 11.4 356 15.9
2012-06-14 05:27:13 51°19.304 2°51.794 2.3 11.6 356 16
2012-06-14 05:27:18 51°19.32 2°51.794 3 11.5 359 16
2012-06-14 05:27:23 51°19.336 2°51.793 3.4 11.6 358 16.3
2012-06-14 05:27:28 51°19.352 2°51.792 3.6 11.6 359 16.3
2012-06-14 05:27:33 51°19.368 2°51.792 4.1 11.5 358 16.4
2012-06-14 05:27:38 51°19.385 2°51.791 3.7 11.6 358 16.4
2012-06-14 05:27:43 51°19.4 2°51.79 3.6 11.5 358 16.5
2012-06-14 05:27:48 51°19.416 2°51.788 3.2 11.5 356 16.5
2012-06-14 05:27:53 51°19.432 2°51.787 3 11.5 357 16.2
2012-06-14 05:27:58 51°19.449 2°51.787 2.8 11.6 358 16.3
2012-06-14 05:28:03 51°19.465 2°51.785 3 11.6 357 16.5
2012-06-14 05:28:07 51°19.477 2°51.784 2.7 11.6 357 16.4
2012-06-14 05:28:13 51°19.497 2°51.783 2.6 11.5 357 16.2
2012-06-14 05:28:18 51°19.513 2°51.781 2.5 11.6 356 16.3
2012-06-14 05:28:23 51°19.529 2°51.779 2.1 11.5 355 16.4
2012-06-14 05:28:27 51°19.541 2°51.776 0.8 11.5 354 16.6
2012-06-14 05:28:33 51°19.561 2°51.772 359.4 11.5 352 16.4
2012-06-14 05:28:38 51°19.577 2°51.769 357.9 11.6 353 16.5
2012-06-14 05:28:43 51°19.593 2°51.766 358.4 11.6 352 16.5
2012-06-14 05:28:48 51°19.609 2°51.762 358.5 11.5 353 16.2
2012-06-14 05:28:53 51°19.625 2°51.759 358.5 11.6 352 16.3
2012-06-14 05:28:58 51°19.64 2°51.756 358.4 11.5 352 16.4
2012-06-14 05:29:03 51°19.656 2°51.753 358.4 11.6 353 16.7
2012-06-14 05:29:08 51°19.673 2°51.75 358.8 11.6 353 16.7
2012-06-14 05:29:13 51°19.689 2°51.747 359.4 11.6 354 16.6
2012-06-14 05:29:18 51°19.705 2°51.745 0.6 11.6 355 16.5
2012-06-14 05:29:23 51°19.721 2°51.743 0.8 11.6 354 16.4
2012-06-14 05:29:28 51°19.737 2°51.739 359.8 11.7 353 16.3
2012-06-14 05:29:33 51°19.753 2°51.735 358.4 11.8 351 16.2
2012-06-14 05:29:38 51°19.769 2°51.731 357.3 11.7 351 16.4
2012-06-14 05:29:43 51°19.785 2°51.726 356.6 11.7 350 16.8
2012-06-14 05:29:48 51°19.8 2°51.723 356.3 11.5 352 16.3
2012-06-14 05:29:53 51°19.816 2°51.719 357 11.6 351 16.4
2012-06-14 05:29:58 51°19.832 2°51.714 357.2 11.5 351 16.1
2012-06-14 05:30:03 51°19.848 2°51.709 356.5 11.6 348 16.2
2012-06-14 05:30:08 51°19.864 2°51.705 355.6 11.7 350 16.2
2012-06-14 05:30:13 51°19.88 2°51.7 355.3 11.7 349 15.8
2012-06-14 05:30:18 51°19.896 2°51.696 356 11.5 351 15.5
2012-06-14 05:30:23 51°19.912 2°51.692 356 11.6 350 15.6
2012-06-14 05:30:27 51°19.924 2°51.688 355.3 11.7 350 15.5
2012-06-14 05:30:33 51°19.944 2°51.682 355 11.8 350 15.7
2012-06-14 05:30:38 51°19.959 2°51.678 356.1 11.5 353 15.6
2012-06-14 05:30:43 51°19.975 2°51.676 358.3 11.6 354 15.4
2012-06-14 05:30:47 51°19.988 2°51.674 0.1 11.6 355 15.3
2012-06-14 05:30:53 51°20.007 2°51.671 0.2 11.5 355 15
2012-06-14 05:30:58 51°20.023 2°51.67 0.9 11.6 358 15.3
2012-06-14 05:31:03 51°20.039 2°51.669 2.3 11.5 358 15.2
2012-06-14 05:31:08 51°20.055 2°51.669 3.5 11.6 -999 15
2012-06-14 05:31:13 51°20.07 2°51.669 4.2 11.4 359 14.6
2012-06-14 05:31:18 51°20.086 2°51.668 4.5 11.4 359 14.2
2012-06-14 05:31:23 51°20.102 2°51.667 4.2 11.5 358 13.3
2012-06-14 05:31:28 51°20.118 2°51.666 3.6 11.4 358 13.2
2012-06-14 05:31:33 51°20.134 2°51.665 3.1 11.4 358 13.6
2012-06-14 05:31:38 51°20.15 2°51.664 3 11.5 358 14.1
2012-06-14 05:31:43 51°20.166 2°51.663 2.6 11.5 357 14.2
2012-06-14 05:31:48 51°20.181 2°51.662 2.7 11.4 358 14.2
2012-06-14 05:31:53 51°20.197 2°51.661 2.8 11.4 357 14.5
2012-06-14 05:31:58 51°20.213 2°51.659 2.4 11.4 357 14.7
2012-06-14 05:32:03 51°20.228 2°51.658 2.1 11.4 358 14.5
2012-06-14 05:32:08 51°20.244 2°51.657 2.4 11.3 358 14
2012-06-14 05:32:13 51°20.259 2°51.657 3.1 11.4 359 14
2012-06-14 05:32:18 51°20.275 2°51.656 3.2 11.1 359 14.1
2012-06-14 05:32:23 51°20.29 2°51.655 3.7 11.2 -999 14
2012-06-14 05:32:27 51°20.303 2°51.655 4.3 11.3 -999 14.2
2012-06-14 05:32:33 51°20.322 2°51.654 4.7 11.3 359 14.2
2012-06-14 05:32:38 51°20.337 2°51.654 5 11.2 -999 14
2012-06-14 05:32:43 51°20.353 2°51.655 5.7 11.3 -999 14.1
2012-06-14 05:32:48 51°20.369 2°51.655 5.7 11.4 -999 14
2012-06-14 05:32:53 51°20.385 2°51.655 5.8 11.4 -999 13.7
2012-06-14 05:32:58 51°20.4 2°51.656 5.8 11.2 -999 13.8
2012-06-14 05:33:03 51°20.416 2°51.656 5.9 11 1 14.1
2012-06-14 05:33:08 51°20.432 2°51.657 6.4 11.2 1 14.3
2012-06-14 05:33:13 51°20.447 2°51.658 7 11.2 2 14.4
2012-06-14 05:33:18 51°20.463 2°51.659 7.3 11.3 2 14.7
2012-06-14 05:33:23 51°20.479 2°51.66 7.1 11.3 2 14.7
2012-06-14 05:33:28 51°20.494 2°51.66 6.7 11.2 1 15.5
2012-06-14 05:33:33 51°20.51 2°51.661 6.6 11.3 2 15.2
2012-06-14 05:33:38 51°20.526 2°51.661 6.8 11.3 1 15.3
2012-06-14 05:33:43 51°20.541 2°51.663 6.8 11.4 2 15.8
2012-06-14 05:33:48 51°20.557 2°51.663 7.2 11.3 2 16
2012-06-14 05:33:53 51°20.573 2°51.664 6.4 11.5 1 16
2012-06-14 05:33:58 51°20.589 2°51.663 5.9 11.4 -999 15.3
2012-06-14 05:34:03 51°20.604 2°51.663 5.6 11.2 -999 14.8
2012-06-14 05:34:08 51°20.62 2°51.664 5.4 11.3 -999 15.3
2012-06-14 05:34:13 51°20.636 2°51.664 5.9 11.3 1 15.6
2012-06-14 05:34:18 51°20.651 2°51.665 6.3 11.4 1 15.6
2012-06-14 05:34:23 51°20.667 2°51.665 6.3 11.4 1 15.7
2012-06-14 05:34:27 51°20.679 2°51.665 6.3 11.3 -999 15.9
2012-06-14 05:34:33 51°20.699 2°51.665 5.8 11.3 -999 15.6
2012-06-14 05:34:38 51°20.715 2°51.665 4.9 11.4 359 15.9
2012-06-14 05:34:43 51°20.73 2°51.665 4.5 11.4 359 16.1
2012-06-14 05:34:47 51°20.742 2°51.664 4.3 11.2 359 16.9
2012-06-14 05:34:53 51°20.762 2°51.663 3.9 11.3 357 17
2012-06-14 05:34:58 51°20.777 2°51.661 2.9 11.3 356 17.1
2012-06-14 05:35:03 51°20.793 2°51.66 2.4 11.2 357 17.1
2012-06-14 05:35:08 51°20.809 2°51.659 2.3 11.5 356 17.5
2012-06-14 05:35:13 51°20.825 2°51.657 1.7 11.5 357 18.1
2012-06-14 05:35:18 51°20.841 2°51.654 1 11.5 355 18
2012-06-14 05:35:23 51°20.856 2°51.653 1.1 11.4 356 17.6
2012-06-14 05:35:27 51°20.869 2°51.651 1.5 11.4 356 17.8
2012-06-14 05:35:33 51°20.888 2°51.65 2 11.5 358 18.1
2012-06-14 05:35:38 51°20.904 2°51.648 2.3 11.6 356 18.4
2012-06-14 05:35:43 51°20.92 2°51.647 2.3 11.4 357 18.1
2012-06-14 05:35:48 51°20.936 2°51.646 2 11.6 356 18.2
2012-06-14 05:35:53 51°20.951 2°51.643 1.5 11.5 355 18.7
2012-06-14 05:35:58 51°20.967 2°51.642 1.2 11.4 356 18.9
2012-06-14 05:36:03 51°20.983 2°51.64 1.2 11.5 356 18.5
2012-06-14 05:36:08 51°20.999 2°51.638 1 11.4 356 18.2
2012-06-14 05:36:13 51°21.015 2°51.636 1.1 11.3 357 18.6
2012-06-14 05:36:18 51°21.031 2°51.635 1.5 11.4 356 18.9
2012-06-14 05:36:23 51°21.047 2°51.634 2 11.5 357 18.9
2012-06-14 05:36:28 51°21.063 2°51.633 2.4 11.5 358 19
2012-06-14 05:36:33 51°21.079 2°51.632 2.9 11.5 358 19.5
2012-06-14 05:36:38 51°21.095 2°51.631 3 11.5 357 19.5
2012-06-14 05:36:43 51°21.111 2°51.63 2.9 11.5 358 19.4
2012-06-14 05:36:47 51°21.124 2°51.629 2.9 11.6 358 19.4
2012-06-14 05:36:53 51°21.143 2°51.628 3 11.6 358 19.5
2012-06-14 05:36:58 51°21.159 2°51.627 3.7 11.6 359 19.8
2012-06-14 05:37:03 51°21.175 2°51.627 4.1 11.4 -999 20.1
2012-06-14 05:37:08 51°21.19 2°51.627 4.8 11.3 -999 20.5
2012-06-14 05:37:13 51°21.207 2°51.628 5.5 11.3 1 20.9
2012-06-14 05:37:18 51°21.222 2°51.628 6.1 11.3 1 20.9
2012-06-14 05:37:23 51°21.239 2°51.629 6.6 11.4 2 21.1
2012-06-14 05:37:28 51°21.255 2°51.63 7.1 11.5 3 21.5
2012-06-14 05:37:33 51°21.271 2°51.632 7.7 11.6 3 21.8
2012-06-14 05:37:38 51°21.287 2°51.632 7.8 11.6 2 21.8
2012-06-14 05:37:43 51°21.303 2°51.634 8 11.7 3 21.9
2012-06-14 05:37:48 51°21.319 2°51.634 8 11.6 1 22
2012-06-14 05:37:53 51°21.335 2°51.635 7 11.6 1 22
2012-06-14 05:37:58 51°21.352 2°51.635 6.4 11.6 -999 22
2012-06-14 05:38:03 51°21.368 2°51.635 5.9 11.5 -999 22.7
2012-06-14 05:38:08 51°21.384 2°51.635 5.2 11.6 359 23.1
2012-06-14 05:38:13 51°21.4 2°51.635 4.8 11.6 359 23
2012-06-14 05:38:18 51°21.416 2°51.634 4.7 11.5 359 22.8
2012-06-14 05:38:23 51°21.433 2°51.634 4.7 11.6 359 23.2
2012-06-14 05:38:28 51°21.45 2°51.633 4.5 11.9 358 23.2
2012-06-14 05:38:33 51°21.466 2°51.633 4.3 11.9 358 23
2012-06-14 05:38:38 51°21.482 2°51.632 3.8 11.7 358 23.1
2012-06-14 05:38:43 51°21.498 2°51.63 3.3 11.7 357 23
2012-06-14 05:38:48 51°21.515 2°51.629 2.8 11.9 356 23.5
2012-06-14 05:38:53 51°21.531 2°51.627 2.2 11.8 356 23.8
2012-06-14 05:38:58 51°21.547 2°51.626 2.2 11.8 356 23.6
2012-06-14 05:39:03 51°21.564 2°51.623 1.8 11.9 356 23.9
2012-06-14 05:39:07 51°21.577 2°51.622 1.5 11.9 356 24.4
2012-06-14 05:39:13 51°21.596 2°51.62 1.4 11.9 355 24.3
2012-06-14 05:39:18 51°21.613 2°51.618 1.1 11.9 356 24.4
2012-06-14 05:39:23 51°21.629 2°51.616 1 12 355 24.9
2012-06-14 05:39:27 51°21.642 2°51.614 0.9 11.9 356 24.5
2012-06-14 05:39:33 51°21.662 2°51.612 1.5 11.8 356 24.5
2012-06-14 05:39:38 51°21.678 2°51.611 2.2 11.9 357 24.8
2012-06-14 05:39:43 51°21.694 2°51.61 2.7 11.7 357 24.9
2012-06-14 05:39:48 51°21.711 2°51.609 3 11.8 358 24.9
2012-06-14 05:39:53 51°21.727 2°51.608 3.3 11.9 357 25.1
2012-06-14 05:39:58 51°21.744 2°51.607 3.4 11.8 358 25
2012-06-14 05:40:03 51°21.76 2°51.606 3.9 11.7 358 24.7
2012-06-14 05:40:08 51°21.776 2°51.606 4.2 11.6 359 24.6
2012-06-14 05:40:13 51°21.793 2°51.605 4.5 11.8 -999 25
2012-06-14 05:40:18 51°21.81 2°51.606 5.8 11.9 2 25
2012-06-14 05:40:23 51°21.827 2°51.607 7.3 12 2 24.9
2012-06-14 05:40:28 51°21.843 2°51.608 7.9 11.8 3 24.9
2012-06-14 05:40:33 51°21.859 2°51.61 9 11.9 4 24.9
2012-06-14 05:40:38 51°21.876 2°51.611 9.1 12 3 25.1
2012-06-14 05:40:43 51°21.892 2°51.614 9.6 11.9 5 24.8
2012-06-14 05:40:48 51°21.908 2°51.615 10.2 11.6 3 25.1
2012-06-14 05:40:53 51°21.924 2°51.618 9.9 11.7 5 24.7
2012-06-14 05:40:58 51°21.941 2°51.618 9.4 11.8 2 24.4
2012-06-14 05:41:03 51°21.958 2°51.62 8.7 12 3 24.7
2012-06-14 05:41:08 51°21.974 2°51.621 8.7 11.9 2 24.7
2012-06-14 05:41:13 51°21.99 2°51.622 8.7 11.9 2 24.8
2012-06-14 05:41:18 51°22.007 2°51.624 8.5 11.8 3 24.8
2012-06-14 05:41:23 51°22.023 2°51.625 8.8 11.8 3 24.7
2012-06-14 05:41:27 51°22.036 2°51.626 9 11.8 3 24.5
2012-06-14 05:41:33 51°22.056 2°51.627 8.8 11.9 3 24.4
2012-06-14 05:41:38 51°22.073 2°51.628 8.8 11.8 2 24.5
2012-06-14 05:41:43 51°22.089 2°51.629 8.2 11.8 2 24.8
2012-06-14 05:41:48 51°22.106 2°51.63 7.9 11.8 2 24.7
2012-06-14 05:41:53 51°22.122 2°51.63 7.7 11.9 -999 24.4
2012-06-14 05:41:58 51°22.139 2°51.629 6.1 12.1 358 24.5
2012-06-14 05:42:03 51°22.155 2°51.628 4.5 12 358 24.7
2012-06-14 05:42:07 51°22.168 2°51.627 3 11.9 357 24.2
2012-06-14 05:42:13 51°22.188 2°51.625 3.2 11.8 357 24.2
2012-06-14 05:42:18 51°22.204 2°51.624 3 11.9 357 24.2
2012-06-14 05:42:23 51°22.22 2°51.621 2.1 11.8 354 23.9
2012-06-14 05:42:28 51°22.237 2°51.619 1.5 11.8 355 24.2
2012-06-14 05:42:33 51°22.253 2°51.616 0.9 11.8 354 24.4
2012-06-14 05:42:38 51°22.269 2°51.613 0.2 11.8 353 24.3
2012-06-14 05:42:43 51°22.286 2°51.611 0.1 11.8 355 24.3
2012-06-14 05:42:48 51°22.302 2°51.608 0.4 11.8 354 24.6
2012-06-14 05:42:53 51°22.318 2°51.605 0.1 11.8 354 24.3
2012-06-14 05:42:58 51°22.335 2°51.602 -999 11.8 353 24.5
2012-06-14 05:43:03 51°22.351 2°51.601 0.3 11.9 356 24.6
2012-06-14 05:43:08 51°22.367 2°51.599 1.2 11.9 356 25.2
2012-06-14 05:43:13 51°22.384 2°51.598 2.3 11.8 358 24.7
2012-06-14 05:43:18 51°22.4 2°51.597 3.8 11.6 359 24.2
2012-06-14 05:43:23 51°22.416 2°51.597 4.4 11.7 359 24
2012-06-14 05:43:27 51°22.429 2°51.597 5 11.8 -999 23.9
2012-06-14 05:43:33 51°22.449 2°51.597 5.9 11.9 1 24
2012-06-14 05:43:38 51°22.465 2°51.598 6.8 11.8 1 24.2
2012-06-14 05:43:43 51°22.481 2°51.598 6.6 11.7 -999 23.7
2012-06-14 05:43:48 51°22.497 2°51.598 6.4 11.7 1 23.5
2012-06-14 05:43:53 51°22.513 2°51.597 5.9 11.5 359 23.6
2012-06-14 05:43:58 51°22.53 2°51.597 5.3 11.6 -999 24
2012-06-14 05:44:03 51°22.547 2°51.597 5 11.8 358 23.8
2012-06-14 05:44:08 51°22.563 2°51.596 3.9 11.7 358 23.8
2012-06-14 05:44:13 51°22.579 2°51.594 3 11.8 355 24.1
2012-06-14 05:44:18 51°22.595 2°51.592 2.3 11.7 357 24.3
2012-06-14 05:44:23 51°22.611 2°51.59 2.1 11.8 355 24.3
2012-06-14 05:44:28 51°22.628 2°51.588 1.3 11.7 355 24.2
2012-06-14 05:44:33 51°22.644 2°51.585 0.5 12 355 24
2012-06-14 05:44:38 51°22.66 2°51.583 0.8 11.8 355 24.3
2012-06-14 05:44:43 51°22.676 2°51.58 0.9 11.7 354 23.8
2012-06-14 05:44:48 51°22.692 2°51.578 0.8 11.6 355 23.6
2012-06-14 05:44:53 51°22.708 2°51.576 1 11.6 355 23.6
2012-06-14 05:44:58 51°22.724 2°51.573 1.1 11.5 355 23.4
2012-06-14 05:45:03 51°22.74 2°51.572 1.3 11.7 356 23.6
2012-06-14 05:45:08 51°22.756 2°51.569 1.3 11.7 355 23.8
2012-06-14 05:45:13 51°22.772 2°51.567 1.3 11.7 355 23.9
2012-06-14 05:45:18 51°22.789 2°51.566 1.1 11.8 355 23.7
2012-06-14 05:45:23 51°22.805 2°51.564 1.3 11.8 356 24
2012-06-14 05:45:27 51°22.818 2°51.562 1.6 11.7 356 24.1
2012-06-14 05:45:33 51°22.837 2°51.56 2.2 11.7 357 23.5
2012-06-14 05:45:38 51°22.853 2°51.559 2.5 11.6 357 23.7
2012-06-14 05:45:43 51°22.869 2°51.558 3.1 11.6 358 23.4
2012-06-14 05:45:47 51°22.883 2°51.558 3.7 11.9 358 23.6
2012-06-14 05:45:53 51°22.902 2°51.557 4.4 11.8 359 23.9
2012-06-14 05:45:58 51°22.918 2°51.557 4.8 11.7 359 23.6
2012-06-14 05:46:03 51°22.934 2°51.557 5.1 11.5 -999 23.3
2012-06-14 05:46:08 51°22.95 2°51.557 5.6 11.6 -999 23
2012-06-14 05:46:13 51°22.966 2°51.557 5.9 11.6 -999 23.2
2012-06-14 05:46:18 51°22.983 2°51.558 6.6 11.6 2 22.2